sensor_id;sensor_type;location;lat;lon;timestamp;P1;durP1;ratioP1;P2;durP2;ratioP2
25531;SDS011;13429;48.816;9.118;2023-09-12T00:00:15;9.77;;;7.43;;
25531;SDS011;13429;48.816;9.118;2023-09-12T00:02:41;11.90;;;7.60;;
25531;SDS011;13429;48.816;9.118;2023-09-12T00:05:07;12.35;;;7.18;;
25531;SDS011;13429;48.816;9.118;2023-09-12T00:07:34;11.07;;;7.97;;
25531;SDS011;13429;48.816;9.118;2023-09-12T00:10:00;18.17;;;7.47;;
25531;SDS011;13429;48.816;9.118;2023-09-12T00:12:26;9.63;;;7.00;;
25531;SDS011;13429;48.816;9.118;2023-09-12T00:14:54;11.77;;;7.78;;
25531;SDS011;13429;48.816;9.118;2023-09-12T00:17:20;15.70;;;8.43;;
25531;SDS011;13429;48.816;9.118;2023-09-12T00:19:46;10.75;;;7.40;;
25531;SDS011;13429;48.816;9.118;2023-09-12T00:22:12;12.20;;;8.02;;
25531;SDS011;13429;48.816;9.118;2023-09-12T00:24:38;12.95;;;9.10;;
25531;SDS011;13429;48.816;9.118;2023-09-12T00:27:04;17.48;;;9.05;;
25531;SDS011;13429;48.816;9.118;2023-09-12T00:29:30;13.80;;;8.52;;
25531;SDS011;13429;48.816;9.118;2023-09-12T00:31:56;15.48;;;8.63;;
25531;SDS011;13429;48.816;9.118;2023-09-12T00:34:22;15.80;;;9.32;;
25531;SDS011;13429;48.816;9.118;2023-09-12T00:36:48;17.70;;;9.10;;
25531;SDS011;13429;48.816;9.118;2023-09-12T00:39:14;15.57;;;8.18;;
25531;SDS011;13429;48.816;9.118;2023-09-12T00:41:40;13.20;;;9.35;;
25531;SDS011;13429;48.816;9.118;2023-09-12T00:44:07;17.55;;;9.27;;
25531;SDS011;13429;48.816;9.118;2023-09-12T00:46:33;15.43;;;9.27;;
25531;SDS011;13429;48.816;9.118;2023-09-12T00:48:59;17.98;;;9.95;;
25531;SDS011;13429;48.816;9.118;2023-09-12T00:51:25;17.10;;;8.95;;
25531;SDS011;13429;48.816;9.118;2023-09-12T00:53:51;15.02;;;9.57;;
25531;SDS011;13429;48.816;9.118;2023-09-12T00:56:19;12.60;;;8.00;;
25531;SDS011;13429;48.816;9.118;2023-09-12T00:58:45;10.77;;;8.45;;
25531;SDS011;13429;48.816;9.118;2023-09-12T01:01:11;13.27;;;8.55;;
25531;SDS011;13429;48.816;9.118;2023-09-12T01:03:37;13.52;;;8.43;;
25531;SDS011;13429;48.816;9.118;2023-09-12T01:06:03;11.73;;;6.68;;
25531;SDS011;13429;48.816;9.118;2023-09-12T01:08:32;11.27;;;7.82;;
25531;SDS011;13429;48.816;9.118;2023-09-12T01:10:58;14.20;;;8.55;;
25531;SDS011;13429;48.816;9.118;2023-09-12T01:13:24;14.25;;;8.65;;
25531;SDS011;13429;48.816;9.118;2023-09-12T01:15:51;13.30;;;8.57;;
25531;SDS011;13429;48.816;9.118;2023-09-12T01:18:17;13.50;;;8.82;;
25531;SDS011;13429;48.816;9.118;2023-09-12T01:20:47;14.23;;;8.27;;
25531;SDS011;13429;48.816;9.118;2023-09-12T01:28:20;12.35;;;8.50;;
25531;SDS011;13429;48.816;9.118;2023-09-12T01:30:50;12.52;;;8.20;;
25531;SDS011;13429;48.816;9.118;2023-09-12T01:33:17;15.32;;;8.15;;
25531;SDS011;13429;48.816;9.118;2023-09-12T01:35:43;14.05;;;8.48;;
25531;SDS011;13429;48.816;9.118;2023-09-12T01:38:11;11.40;;;8.60;;
25531;SDS011;13429;48.816;9.118;2023-09-12T01:40:45;12.98;;;8.15;;
25531;SDS011;13429;48.816;9.118;2023-09-12T01:43:11;14.25;;;8.98;;
25531;SDS011;13429;48.816;9.118;2023-09-12T01:45:41;14.85;;;8.25;;
25531;SDS011;13429;48.816;9.118;2023-09-12T01:48:08;15.23;;;8.73;;
25531;SDS011;13429;48.816;9.118;2023-09-12T01:50:34;14.40;;;9.23;;
25531;SDS011;13429;48.816;9.118;2023-09-12T01:53:01;12.65;;;8.57;;
25531;SDS011;13429;48.816;9.118;2023-09-12T01:55:28;12.23;;;8.48;;
25531;SDS011;13429;48.816;9.118;2023-09-12T01:57:54;16.58;;;9.07;;
25531;SDS011;13429;48.816;9.118;2023-09-12T02:00:22;13.48;;;8.60;;
25531;SDS011;13429;48.816;9.118;2023-09-12T02:02:48;15.68;;;10.75;;
25531;SDS011;13429;48.816;9.118;2023-09-12T02:05:18;13.48;;;8.80;;
25531;SDS011;13429;48.816;9.118;2023-09-12T02:07:46;15.57;;;9.65;;
25531;SDS011;13429;48.816;9.118;2023-09-12T02:10:12;15.55;;;9.63;;
25531;SDS011;13429;48.816;9.118;2023-09-12T02:12:38;12.77;;;9.57;;
25531;SDS011;13429;48.816;9.118;2023-09-12T02:15:05;13.90;;;9.88;;
25531;SDS011;13429;48.816;9.118;2023-09-12T02:17:31;18.58;;;10.10;;
25531;SDS011;13429;48.816;9.118;2023-09-12T02:19:57;13.30;;;9.25;;
25531;SDS011;13429;48.816;9.118;2023-09-12T02:22:23;15.63;;;9.38;;
25531;SDS011;13429;48.816;9.118;2023-09-12T02:24:49;13.18;;;9.30;;
25531;SDS011;13429;48.816;9.118;2023-09-12T02:27:15;16.02;;;9.50;;
25531;SDS011;13429;48.816;9.118;2023-09-12T02:29:41;20.08;;;9.77;;
25531;SDS011;13429;48.816;9.118;2023-09-12T02:32:08;12.80;;;9.45;;
25531;SDS011;13429;48.816;9.118;2023-09-12T02:34:34;16.77;;;10.43;;
25531;SDS011;13429;48.816;9.118;2023-09-12T02:37:00;20.98;;;10.50;;
25531;SDS011;13429;48.816;9.118;2023-09-12T02:39:26;18.98;;;11.40;;
25531;SDS011;13429;48.816;9.118;2023-09-12T02:41:52;16.45;;;9.93;;
25531;SDS011;13429;48.816;9.118;2023-09-12T02:44:18;14.38;;;9.13;;
25531;SDS011;13429;48.816;9.118;2023-09-12T02:46:45;12.38;;;9.50;;
25531;SDS011;13429;48.816;9.118;2023-09-12T02:49:11;16.35;;;9.70;;
25531;SDS011;13429;48.816;9.118;2023-09-12T02:51:40;17.75;;;10.05;;
25531;SDS011;13429;48.816;9.118;2023-09-12T02:54:07;15.68;;;9.30;;
25531;SDS011;13429;48.816;9.118;2023-09-12T02:56:33;16.55;;;9.70;;
25531;SDS011;13429;48.816;9.118;2023-09-12T02:58:59;12.95;;;9.23;;
25531;SDS011;13429;48.816;9.118;2023-09-12T03:01:25;16.35;;;10.35;;
25531;SDS011;13429;48.816;9.118;2023-09-12T03:03:53;13.88;;;8.68;;
25531;SDS011;13429;48.816;9.118;2023-09-12T03:06:19;11.90;;;9.60;;
25531;SDS011;13429;48.816;9.118;2023-09-12T03:08:46;13.65;;;9.40;;
25531;SDS011;13429;48.816;9.118;2023-09-12T03:11:12;13.15;;;9.30;;
25531;SDS011;13429;48.816;9.118;2023-09-12T03:13:38;17.05;;;9.35;;
25531;SDS011;13429;48.816;9.118;2023-09-12T03:16:05;13.73;;;10.32;;
25531;SDS011;13429;48.816;9.118;2023-09-12T03:18:31;15.93;;;9.88;;
25531;SDS011;13429;48.816;9.118;2023-09-12T03:20:57;18.98;;;10.60;;
25531;SDS011;13429;48.816;9.118;2023-09-12T03:23:23;13.65;;;9.20;;
25531;SDS011;13429;48.816;9.118;2023-09-12T03:25:49;14.50;;;10.20;;
25531;SDS011;13429;48.816;9.118;2023-09-12T03:28:15;16.95;;;10.15;;
25531;SDS011;13429;48.816;9.118;2023-09-12T03:30:41;16.13;;;10.25;;
25531;SDS011;13429;48.816;9.118;2023-09-12T03:33:07;15.70;;;10.15;;
25531;SDS011;13429;48.816;9.118;2023-09-12T03:35:34;16.48;;;10.07;;
25531;SDS011;13429;48.816;9.118;2023-09-12T03:38:00;15.25;;;9.80;;
25531;SDS011;13429;48.816;9.118;2023-09-12T03:40:29;15.98;;;9.85;;
25531;SDS011;13429;48.816;9.118;2023-09-12T03:42:55;16.02;;;9.90;;
25531;SDS011;13429;48.816;9.118;2023-09-12T03:45:22;16.00;;;11.07;;
25531;SDS011;13429;48.816;9.118;2023-09-12T03:47:48;16.80;;;9.27;;
25531;SDS011;13429;48.816;9.118;2023-09-12T03:50:14;14.52;;;9.98;;
25531;SDS011;13429;48.816;9.118;2023-09-12T03:52:40;15.05;;;9.75;;
25531;SDS011;13429;48.816;9.118;2023-09-12T03:55:06;15.02;;;9.80;;
25531;SDS011;13429;48.816;9.118;2023-09-12T03:57:33;14.40;;;9.95;;
25531;SDS011;13429;48.816;9.118;2023-09-12T03:59:59;16.80;;;10.80;;
25531;SDS011;13429;48.816;9.118;2023-09-12T04:02:25;17.80;;;10.25;;
25531;SDS011;13429;48.816;9.118;2023-09-12T04:04:51;15.70;;;9.90;;
25531;SDS011;13429;48.816;9.118;2023-09-12T04:07:17;24.33;;;11.15;;
25531;SDS011;13429;48.816;9.118;2023-09-12T04:09:44;18.20;;;11.48;;
25531;SDS011;13429;48.816;9.118;2023-09-12T04:12:10;15.80;;;9.90;;
25531;SDS011;13429;48.816;9.118;2023-09-12T04:14:36;20.27;;;11.02;;
25531;SDS011;13429;48.816;9.118;2023-09-12T04:17:02;13.35;;;9.82;;
25531;SDS011;13429;48.816;9.118;2023-09-12T04:19:30;20.27;;;10.45;;
25531;SDS011;13429;48.816;9.118;2023-09-12T04:21:56;17.88;;;11.43;;
25531;SDS011;13429;48.816;9.118;2023-09-12T04:24:22;19.25;;;11.70;;
25531;SDS011;13429;48.816;9.118;2023-09-12T04:26:49;18.83;;;10.98;;
25531;SDS011;13429;48.816;9.118;2023-09-12T04:29:15;14.07;;;10.00;;
25531;SDS011;13429;48.816;9.118;2023-09-12T04:31:41;18.73;;;11.43;;
25531;SDS011;13429;48.816;9.118;2023-09-12T04:34:07;16.83;;;10.65;;
25531;SDS011;13429;48.816;9.118;2023-09-12T04:36:33;18.08;;;10.23;;
25531;SDS011;13429;48.816;9.118;2023-09-12T04:38:59;15.25;;;10.80;;
25531;SDS011;13429;48.816;9.118;2023-09-12T04:41:25;20.17;;;11.00;;
25531;SDS011;13429;48.816;9.118;2023-09-12T04:43:51;16.42;;;10.30;;
25531;SDS011;13429;48.816;9.118;2023-09-12T04:46:17;17.20;;;10.77;;
25531;SDS011;13429;48.816;9.118;2023-09-12T04:48:43;15.43;;;10.00;;
25531;SDS011;13429;48.816;9.118;2023-09-12T04:51:09;20.75;;;9.88;;
25531;SDS011;13429;48.816;9.118;2023-09-12T04:53:35;12.85;;;9.55;;
25531;SDS011;13429;48.816;9.118;2023-09-12T04:56:01;14.70;;;10.30;;
25531;SDS011;13429;48.816;9.118;2023-09-12T04:58:28;16.83;;;10.23;;
25531;SDS011;13429;48.816;9.118;2023-09-12T05:00:54;19.83;;;10.05;;
25531;SDS011;13429;48.816;9.118;2023-09-12T05:03:20;14.85;;;10.55;;
25531;SDS011;13429;48.816;9.118;2023-09-12T05:05:47;19.17;;;10.63;;
25531;SDS011;13429;48.816;9.118;2023-09-12T05:08:13;23.98;;;11.35;;
25531;SDS011;13429;48.816;9.118;2023-09-12T05:10:39;18.48;;;10.10;;
25531;SDS011;13429;48.816;9.118;2023-09-12T05:13:05;17.48;;;11.18;;
25531;SDS011;13429;48.816;9.118;2023-09-12T05:15:31;17.90;;;10.85;;
25531;SDS011;13429;48.816;9.118;2023-09-12T05:17:57;17.98;;;11.18;;
25531;SDS011;13429;48.816;9.118;2023-09-12T05:20:23;14.57;;;10.73;;
25531;SDS011;13429;48.816;9.118;2023-09-12T05:22:49;19.42;;;11.18;;
25531;SDS011;13429;48.816;9.118;2023-09-12T05:25:15;15.05;;;10.57;;
25531;SDS011;13429;48.816;9.118;2023-09-12T05:27:41;19.60;;;10.93;;
25531;SDS011;13429;48.816;9.118;2023-09-12T05:30:07;13.23;;;10.48;;
25531;SDS011;13429;48.816;9.118;2023-09-12T05:32:33;14.80;;;10.35;;
25531;SDS011;13429;48.816;9.118;2023-09-12T05:35:01;18.00;;;9.82;;
25531;SDS011;13429;48.816;9.118;2023-09-12T05:37:27;17.33;;;9.15;;
25531;SDS011;13429;48.816;9.118;2023-09-12T05:39:53;16.40;;;10.90;;
25531;SDS011;13429;48.816;9.118;2023-09-12T05:42:19;19.48;;;10.18;;
25531;SDS011;13429;48.816;9.118;2023-09-12T05:44:47;16.55;;;9.23;;
25531;SDS011;13429;48.816;9.118;2023-09-12T05:47:14;12.85;;;9.30;;
25531;SDS011;13429;48.816;9.118;2023-09-12T05:49:40;14.85;;;8.07;;
25531;SDS011;13429;48.816;9.118;2023-09-12T05:52:06;15.25;;;8.77;;
25531;SDS011;13429;48.816;9.118;2023-09-12T05:54:32;17.42;;;10.60;;
25531;SDS011;13429;48.816;9.118;2023-09-12T05:56:59;12.95;;;8.63;;
25531;SDS011;13429;48.816;9.118;2023-09-12T05:59:25;13.60;;;8.82;;
25531;SDS011;13429;48.816;9.118;2023-09-12T06:01:51;14.93;;;9.13;;
25531;SDS011;13429;48.816;9.118;2023-09-12T06:04:17;14.18;;;8.55;;
25531;SDS011;13429;48.816;9.118;2023-09-12T06:06:43;12.73;;;8.05;;
25531;SDS011;13429;48.816;9.118;2023-09-12T06:09:11;14.90;;;8.07;;
25531;SDS011;13429;48.816;9.118;2023-09-12T06:11:37;11.00;;;8.25;;
25531;SDS011;13429;48.816;9.118;2023-09-12T06:14:03;13.02;;;8.85;;
25531;SDS011;13429;48.816;9.118;2023-09-12T06:16:29;12.20;;;7.60;;
25531;SDS011;13429;48.816;9.118;2023-09-12T06:18:55;15.55;;;8.70;;
25531;SDS011;13429;48.816;9.118;2023-09-12T06:21:21;16.13;;;9.35;;
25531;SDS011;13429;48.816;9.118;2023-09-12T06:23:48;12.57;;;8.48;;
25531;SDS011;13429;48.816;9.118;2023-09-12T06:26:15;15.65;;;8.38;;
25531;SDS011;13429;48.816;9.118;2023-09-12T06:28:41;14.85;;;10.05;;
25531;SDS011;13429;48.816;9.118;2023-09-12T06:31:08;13.50;;;9.52;;
25531;SDS011;13429;48.816;9.118;2023-09-12T06:33:34;12.35;;;8.25;;
25531;SDS011;13429;48.816;9.118;2023-09-12T06:36:00;13.82;;;7.78;;
25531;SDS011;13429;48.816;9.118;2023-09-12T06:38:27;20.98;;;8.13;;
25531;SDS011;13429;48.816;9.118;2023-09-12T06:40:53;17.83;;;8.93;;
25531;SDS011;13429;48.816;9.118;2023-09-12T06:43:20;11.57;;;7.97;;
25531;SDS011;13429;48.816;9.118;2023-09-12T06:45:46;15.38;;;8.25;;
25531;SDS011;13429;48.816;9.118;2023-09-12T06:48:13;20.52;;;8.80;;
25531;SDS011;13429;48.816;9.118;2023-09-12T06:50:39;20.88;;;8.93;;
25531;SDS011;13429;48.816;9.118;2023-09-12T06:53:05;13.60;;;8.60;;
25531;SDS011;13429;48.816;9.118;2023-09-12T06:55:32;15.32;;;8.73;;
25531;SDS011;13429;48.816;9.118;2023-09-12T06:57:59;13.35;;;8.60;;
25531;SDS011;13429;48.816;9.118;2023-09-12T07:00:25;11.82;;;8.40;;
25531;SDS011;13429;48.816;9.118;2023-09-12T07:02:51;13.15;;;7.93;;
25531;SDS011;13429;48.816;9.118;2023-09-12T07:05:17;11.15;;;7.57;;
25531;SDS011;13429;48.816;9.118;2023-09-12T07:07:43;12.50;;;7.65;;
25531;SDS011;13429;48.816;9.118;2023-09-12T07:10:10;12.32;;;7.85;;
25531;SDS011;13429;48.816;9.118;2023-09-12T07:12:36;15.82;;;8.60;;
25531;SDS011;13429;48.816;9.118;2023-09-12T07:15:02;14.65;;;8.68;;
25531;SDS011;13429;48.816;9.118;2023-09-12T07:17:29;14.18;;;8.63;;
25531;SDS011;13429;48.816;9.118;2023-09-12T07:19:55;11.25;;;8.15;;
25531;SDS011;13429;48.816;9.118;2023-09-12T07:22:21;11.90;;;7.18;;
25531;SDS011;13429;48.816;9.118;2023-09-12T07:24:47;11.13;;;7.35;;
25531;SDS011;13429;48.816;9.118;2023-09-12T07:27:13;16.00;;;7.88;;
25531;SDS011;13429;48.816;9.118;2023-09-12T07:29:39;15.55;;;7.63;;
25531;SDS011;13429;48.816;9.118;2023-09-12T07:32:05;16.65;;;8.50;;
25531;SDS011;13429;48.816;9.118;2023-09-12T07:34:31;15.52;;;7.68;;
25531;SDS011;13429;48.816;9.118;2023-09-12T07:36:58;13.02;;;6.93;;
25531;SDS011;13429;48.816;9.118;2023-09-12T07:39:24;12.77;;;7.97;;
25531;SDS011;13429;48.816;9.118;2023-09-12T07:41:50;11.88;;;7.10;;
25531;SDS011;13429;48.816;9.118;2023-09-12T07:44:16;12.40;;;7.00;;
25531;SDS011;13429;48.816;9.118;2023-09-12T07:46:42;13.43;;;7.80;;
25531;SDS011;13429;48.816;9.118;2023-09-12T07:49:08;14.68;;;8.23;;
25531;SDS011;13429;48.816;9.118;2023-09-12T07:51:35;17.27;;;9.20;;
25531;SDS011;13429;48.816;9.118;2023-09-12T07:54:01;15.48;;;7.50;;
25531;SDS011;13429;48.816;9.118;2023-09-12T07:56:27;12.75;;;7.05;;
25531;SDS011;13429;48.816;9.118;2023-09-12T07:58:53;14.43;;;8.15;;
25531;SDS011;13429;48.816;9.118;2023-09-12T08:01:20;19.90;;;7.60;;
25531;SDS011;13429;48.816;9.118;2023-09-12T08:03:46;13.65;;;7.82;;
25531;SDS011;13429;48.816;9.118;2023-09-12T08:06:13;16.30;;;8.20;;
25531;SDS011;13429;48.816;9.118;2023-09-12T08:08:39;15.02;;;8.10;;
25531;SDS011;13429;48.816;9.118;2023-09-12T08:11:05;12.02;;;6.43;;
25531;SDS011;13429;48.816;9.118;2023-09-12T08:13:31;14.80;;;7.07;;
25531;SDS011;13429;48.816;9.118;2023-09-12T08:15:57;12.10;;;6.07;;
25531;SDS011;13429;48.816;9.118;2023-09-12T08:18:26;11.05;;;6.60;;
25531;SDS011;13429;48.816;9.118;2023-09-12T08:20:53;9.23;;;6.40;;
25531;SDS011;13429;48.816;9.118;2023-09-12T08:23:19;13.32;;;7.38;;
25531;SDS011;13429;48.816;9.118;2023-09-12T08:25:45;13.50;;;7.57;;
25531;SDS011;13429;48.816;9.118;2023-09-12T08:28:11;13.18;;;7.03;;
25531;SDS011;13429;48.816;9.118;2023-09-12T08:30:37;12.50;;;6.80;;
25531;SDS011;13429;48.816;9.118;2023-09-12T08:33:03;12.40;;;7.78;;
25531;SDS011;13429;48.816;9.118;2023-09-12T08:35:30;10.27;;;7.47;;
25531;SDS011;13429;48.816;9.118;2023-09-12T08:37:56;9.32;;;6.78;;
25531;SDS011;13429;48.816;9.118;2023-09-12T08:40:22;8.95;;;6.72;;
25531;SDS011;13429;48.816;9.118;2023-09-12T08:42:48;12.45;;;7.35;;
25531;SDS011;13429;48.816;9.118;2023-09-12T08:45:16;11.60;;;7.03;;
25531;SDS011;13429;48.816;9.118;2023-09-12T08:47:43;10.05;;;6.78;;
25531;SDS011;13429;48.816;9.118;2023-09-12T08:50:13;14.98;;;7.22;;
25531;SDS011;13429;48.816;9.118;2023-09-12T08:52:43;13.82;;;7.10;;
25531;SDS011;13429;48.816;9.118;2023-09-12T08:55:10;12.07;;;7.88;;
25531;SDS011;13429;48.816;9.118;2023-09-12T08:57:37;10.43;;;6.70;;
25531;SDS011;13429;48.816;9.118;2023-09-12T09:00:05;11.43;;;6.18;;
25531;SDS011;13429;48.816;9.118;2023-09-12T09:02:34;8.88;;;7.50;;
25531;SDS011;13429;48.816;9.118;2023-09-12T09:05:00;10.07;;;6.70;;
25531;SDS011;13429;48.816;9.118;2023-09-12T09:07:29;12.60;;;6.97;;
25531;SDS011;13429;48.816;9.118;2023-09-12T09:09:56;10.98;;;6.55;;
25531;SDS011;13429;48.816;9.118;2023-09-12T09:12:22;13.85;;;7.38;;
25531;SDS011;13429;48.816;9.118;2023-09-12T09:14:48;9.32;;;6.07;;
25531;SDS011;13429;48.816;9.118;2023-09-12T09:17:14;12.60;;;6.50;;
25531;SDS011;13429;48.816;9.118;2023-09-12T09:19:41;12.75;;;7.68;;
25531;SDS011;13429;48.816;9.118;2023-09-12T09:22:07;10.85;;;7.45;;
25531;SDS011;13429;48.816;9.118;2023-09-12T09:24:33;10.13;;;6.53;;
25531;SDS011;13429;48.816;9.118;2023-09-12T09:26:59;9.18;;;6.78;;
25531;SDS011;13429;48.816;9.118;2023-09-12T09:29:26;10.93;;;7.50;;
25531;SDS011;13429;48.816;9.118;2023-09-12T09:32:02;12.18;;;7.22;;
25531;SDS011;13429;48.816;9.118;2023-09-12T09:34:30;11.48;;;6.55;;
25531;SDS011;13429;48.816;9.118;2023-09-12T09:36:57;20.65;;;7.88;;
25531;SDS011;13429;48.816;9.118;2023-09-12T09:39:24;16.27;;;7.53;;
25531;SDS011;13429;48.816;9.118;2023-09-12T09:41:54;11.57;;;6.93;;
25531;SDS011;13429;48.816;9.118;2023-09-12T09:44:21;12.85;;;7.68;;
25531;SDS011;13429;48.816;9.118;2023-09-12T09:46:50;12.77;;;7.32;;
25531;SDS011;13429;48.816;9.118;2023-09-12T09:49:19;14.32;;;7.65;;
25531;SDS011;13429;48.816;9.118;2023-09-12T09:51:46;14.55;;;7.22;;
25531;SDS011;13429;48.816;9.118;2023-09-12T09:54:13;12.85;;;8.25;;
25531;SDS011;13429;48.816;9.118;2023-09-12T09:56:49;14.15;;;6.88;;
25531;SDS011;13429;48.816;9.118;2023-09-12T09:59:16;11.90;;;6.53;;
25531;SDS011;13429;48.816;9.118;2023-09-12T10:01:45;11.05;;;7.78;;
25531;SDS011;13429;48.816;9.118;2023-09-12T10:04:12;12.52;;;6.85;;
25531;SDS011;13429;48.816;9.118;2023-09-12T10:06:38;20.98;;;7.22;;
25531;SDS011;13429;48.816;9.118;2023-09-12T10:09:05;9.27;;;6.22;;
25531;SDS011;13429;48.816;9.118;2023-09-12T10:11:32;12.57;;;6.93;;
25531;SDS011;13429;48.816;9.118;2023-09-12T10:14:00;12.25;;;6.72;;
25531;SDS011;13429;48.816;9.118;2023-09-12T10:16:34;16.85;;;6.53;;
25531;SDS011;13429;48.816;9.118;2023-09-12T10:19:20;14.07;;;7.55;;
25531;SDS011;13429;48.816;9.118;2023-09-12T10:21:55;13.27;;;6.72;;
25531;SDS011;13429;48.816;9.118;2023-09-12T10:24:25;10.40;;;6.32;;
25531;SDS011;13429;48.816;9.118;2023-09-12T10:26:53;18.35;;;6.55;;
25531;SDS011;13429;48.816;9.118;2023-09-12T10:29:19;16.85;;;7.90;;
25531;SDS011;13429;48.816;9.118;2023-09-12T10:31:46;14.27;;;7.70;;
25531;SDS011;13429;48.816;9.118;2023-09-12T10:34:13;15.63;;;6.97;;
25531;SDS011;13429;48.816;9.118;2023-09-12T10:36:40;17.40;;;6.85;;
25531;SDS011;13429;48.816;9.118;2023-09-12T10:39:06;16.27;;;7.40;;
25531;SDS011;13429;48.816;9.118;2023-09-12T10:41:33;11.00;;;6.35;;
25531;SDS011;13429;48.816;9.118;2023-09-12T10:44:01;15.05;;;7.18;;
25531;SDS011;13429;48.816;9.118;2023-09-12T10:46:28;9.68;;;5.90;;
25531;SDS011;13429;48.816;9.118;2023-09-12T10:48:54;10.43;;;6.80;;
25531;SDS011;13429;48.816;9.118;2023-09-12T10:51:20;8.98;;;6.43;;
25531;SDS011;13429;48.816;9.118;2023-09-12T10:53:47;11.20;;;6.90;;
25531;SDS011;13429;48.816;9.118;2023-09-12T10:56:18;13.52;;;6.60;;
25531;SDS011;13429;48.816;9.118;2023-09-12T11:01:33;13.07;;;6.60;;
25531;SDS011;13429;48.816;9.118;2023-09-12T11:06:44;7.57;;;5.07;;
25531;SDS011;13429;48.816;9.118;2023-09-12T11:11:43;12.27;;;6.40;;
25531;SDS011;13429;48.816;9.118;2023-09-12T11:14:10;11.82;;;5.65;;
25531;SDS011;13429;48.816;9.118;2023-09-12T11:16:36;9.20;;;6.35;;
25531;SDS011;13429;48.816;9.118;2023-09-12T11:19:12;9.90;;;6.32;;
25531;SDS011;13429;48.816;9.118;2023-09-12T11:21:45;15.13;;;7.22;;
25531;SDS011;13429;48.816;9.118;2023-09-12T11:24:12;9.70;;;6.78;;
25531;SDS011;13429;48.816;9.118;2023-09-12T11:26:54;9.35;;;5.50;;
25531;SDS011;13429;48.816;9.118;2023-09-12T11:29:20;11.80;;;6.97;;
25531;SDS011;13429;48.816;9.118;2023-09-12T11:31:56;15.35;;;6.82;;
25531;SDS011;13429;48.816;9.118;2023-09-12T11:34:24;12.50;;;6.07;;
25531;SDS011;13429;48.816;9.118;2023-09-12T11:36:51;10.95;;;6.35;;
25531;SDS011;13429;48.816;9.118;2023-09-12T11:39:28;11.02;;;6.20;;
25531;SDS011;13429;48.816;9.118;2023-09-12T11:41:55;8.30;;;6.10;;
25531;SDS011;13429;48.816;9.118;2023-09-12T11:44:22;10.18;;;6.07;;
25531;SDS011;13429;48.816;9.118;2023-09-12T11:46:48;10.15;;;6.60;;
25531;SDS011;13429;48.816;9.118;2023-09-12T11:49:15;15.63;;;6.25;;
25531;SDS011;13429;48.816;9.118;2023-09-12T11:51:51;12.02;;;6.57;;
25531;SDS011;13429;48.816;9.118;2023-09-12T11:54:21;10.20;;;5.97;;
25531;SDS011;13429;48.816;9.118;2023-09-12T11:56:50;11.13;;;5.53;;
25531;SDS011;13429;48.816;9.118;2023-09-12T11:59:22;9.80;;;5.28;;
25531;SDS011;13429;48.816;9.118;2023-09-12T12:01:48;9.38;;;5.78;;
25531;SDS011;13429;48.816;9.118;2023-09-12T12:04:14;7.95;;;5.97;;
25531;SDS011;13429;48.816;9.118;2023-09-12T12:06:40;9.15;;;5.93;;
25531;SDS011;13429;48.816;9.118;2023-09-12T12:09:06;9.85;;;7.00;;
25531;SDS011;13429;48.816;9.118;2023-09-12T12:11:32;12.35;;;7.38;;
25531;SDS011;13429;48.816;9.118;2023-09-12T12:14:08;11.00;;;6.18;;
25531;SDS011;13429;48.816;9.118;2023-09-12T12:16:34;10.07;;;6.75;;
25531;SDS011;13429;48.816;9.118;2023-09-12T12:19:00;18.00;;;7.32;;
25531;SDS011;13429;48.816;9.118;2023-09-12T12:21:26;11.05;;;5.80;;
25531;SDS011;13429;48.816;9.118;2023-09-12T12:24:02;13.95;;;9.63;;
25531;SDS011;13429;48.816;9.118;2023-09-12T12:26:29;15.98;;;7.72;;
25531;SDS011;13429;48.816;9.118;2023-09-12T12:28:55;15.00;;;7.90;;
25531;SDS011;13429;48.816;9.118;2023-09-12T12:31:22;9.50;;;6.05;;
25531;SDS011;13429;48.816;9.118;2023-09-12T12:33:50;7.45;;;5.65;;
25531;SDS011;13429;48.816;9.118;2023-09-12T12:36:16;8.77;;;5.40;;
25531;SDS011;13429;48.816;9.118;2023-09-12T12:38:42;11.60;;;5.25;;
25531;SDS011;13429;48.816;9.118;2023-09-12T12:41:11;12.70;;;6.22;;
25531;SDS011;13429;48.816;9.118;2023-09-12T12:43:39;11.20;;;7.57;;
25531;SDS011;13429;48.816;9.118;2023-09-12T12:46:09;9.75;;;5.68;;
25531;SDS011;13429;48.816;9.118;2023-09-12T12:48:36;27.73;;;7.10;;
25531;SDS011;13429;48.816;9.118;2023-09-12T12:51:19;14.18;;;6.38;;
25531;SDS011;13429;48.816;9.118;2023-09-12T12:53:48;12.27;;;6.18;;
25531;SDS011;13429;48.816;9.118;2023-09-12T12:56:16;11.68;;;5.63;;
25531;SDS011;13429;48.816;9.118;2023-09-12T12:58:47;7.88;;;6.07;;
25531;SDS011;13429;48.816;9.118;2023-09-12T13:01:13;11.35;;;6.13;;
25531;SDS011;13429;48.816;9.118;2023-09-12T13:03:40;11.18;;;6.93;;
25531;SDS011;13429;48.816;9.118;2023-09-12T13:06:06;8.27;;;5.30;;
25531;SDS011;13429;48.816;9.118;2023-09-12T13:08:38;12.30;;;6.25;;
25531;SDS011;13429;48.816;9.118;2023-09-12T13:11:04;10.85;;;6.30;;
25531;SDS011;13429;48.816;9.118;2023-09-12T13:13:30;9.57;;;6.57;;
25531;SDS011;13429;48.816;9.118;2023-09-12T13:15:56;10.73;;;6.88;;
25531;SDS011;13429;48.816;9.118;2023-09-12T13:18:22;15.43;;;6.00;;
25531;SDS011;13429;48.816;9.118;2023-09-12T13:20:48;12.55;;;6.53;;
25531;SDS011;13429;48.816;9.118;2023-09-12T13:23:14;15.90;;;6.57;;
25531;SDS011;13429;48.816;9.118;2023-09-12T13:25:40;10.43;;;5.32;;
25531;SDS011;13429;48.816;9.118;2023-09-12T13:28:06;12.63;;;6.63;;
25531;SDS011;13429;48.816;9.118;2023-09-12T13:30:33;10.45;;;5.85;;
25531;SDS011;13429;48.816;9.118;2023-09-12T13:32:59;6.35;;;5.22;;
25531;SDS011;13429;48.816;9.118;2023-09-12T13:35:25;9.48;;;5.82;;
25531;SDS011;13429;48.816;9.118;2023-09-12T13:37:51;10.85;;;6.25;;
25531;SDS011;13429;48.816;9.118;2023-09-12T13:40:17;11.07;;;7.00;;
25531;SDS011;13429;48.816;9.118;2023-09-12T13:42:44;11.73;;;6.40;;
25531;SDS011;13429;48.816;9.118;2023-09-12T13:45:10;14.70;;;5.95;;
25531;SDS011;13429;48.816;9.118;2023-09-12T13:47:37;11.90;;;5.22;;
25531;SDS011;13429;48.816;9.118;2023-09-12T13:50:03;10.43;;;5.18;;
25531;SDS011;13429;48.816;9.118;2023-09-12T13:52:29;10.45;;;5.03;;
25531;SDS011;13429;48.816;9.118;2023-09-12T13:54:55;14.07;;;5.75;;
25531;SDS011;13429;48.816;9.118;2023-09-12T13:57:21;9.32;;;5.75;;
25531;SDS011;13429;48.816;9.118;2023-09-12T13:59:47;10.32;;;6.32;;
25531;SDS011;13429;48.816;9.118;2023-09-12T14:02:14;7.47;;;5.22;;
25531;SDS011;13429;48.816;9.118;2023-09-12T14:04:40;8.38;;;5.05;;
25531;SDS011;13429;48.816;9.118;2023-09-12T14:07:07;9.13;;;5.32;;
25531;SDS011;13429;48.816;9.118;2023-09-12T14:09:33;12.23;;;5.22;;
25531;SDS011;13429;48.816;9.118;2023-09-12T14:11:59;6.40;;;4.65;;
25531;SDS011;13429;48.816;9.118;2023-09-12T14:14:25;8.35;;;5.55;;
25531;SDS011;13429;48.816;9.118;2023-09-12T14:16:51;5.78;;;4.85;;
25531;SDS011;13429;48.816;9.118;2023-09-12T14:19:17;10.55;;;5.18;;
25531;SDS011;13429;48.816;9.118;2023-09-12T14:21:43;12.75;;;5.55;;
25531;SDS011;13429;48.816;9.118;2023-09-12T14:24:09;12.95;;;5.35;;
25531;SDS011;13429;48.816;9.118;2023-09-12T14:26:35;11.15;;;5.25;;
25531;SDS011;13429;48.816;9.118;2023-09-12T14:29:01;10.00;;;5.70;;
25531;SDS011;13429;48.816;9.118;2023-09-12T14:31:28;10.63;;;5.93;;
25531;SDS011;13429;48.816;9.118;2023-09-12T14:33:54;9.32;;;5.82;;
25531;SDS011;13429;48.816;9.118;2023-09-12T14:36:20;8.13;;;5.00;;
25531;SDS011;13429;48.816;9.118;2023-09-12T14:38:46;10.35;;;6.00;;
25531;SDS011;13429;48.816;9.118;2023-09-12T14:41:12;14.88;;;6.60;;
25531;SDS011;13429;48.816;9.118;2023-09-12T14:43:39;8.27;;;5.43;;